Logan, Alabama
Current Conditions -  °F | °C
As of 3:35 AM on Thursday 27 Nov 2014 (Local Time) from KCMD Reporting Station
Overcast Overcast  
Wind Chill: 36°   Ceiling: 4600
Heat Index: 36°   Visibility: 10mi
Dew Point: 31°   Wind: 3mph
Humidity: 82%   Direction: 280°W
Pressure: 30.21"   Gusts: NA
Location:  34.13°N, 87°W
Report Text: KCMD 270935Z AUTO 28003KT 10SM SCT037 OVC046 02/00 A3021 RMK AO2 T00241004
Loading
Personal Weather Stations






























Interactive Weather Map New forecast layout! Learn more

10-Day Weather Forecast

Advertisements
Track Severe Weather on mobile